Time;durP1;ratioP1;P1;durP2;ratioP2;P2;SDS_P1;SDS_P2;PMS_P1;PMS_P2;Temp;Humidity;BMP_temperature;BMP_pressure;BME280_temperature;BME280_humidity;BME280_pressure;Samples;Min_cycle;Max_cycle;Signal;HPM_P1;HPM_P2
2021/07/24 00:01:01;;;;;;;;;;;;;;;24.15;48.82;100846.91;2212130;39;115355;-53
2021/07/24 00:02:32;;;;;;;;;;;;;;;24.19;48.72;100835.78;2212814;39;114654;-53
2021/07/24 00:04:05;;;;;;;;;;;;;;;24.18;48.94;100829.31;2209562;39;115746;-53
2021/07/24 00:05:48;;;;;;;;;;;;;;;24.16;49.09;100811.91;2206373;39;117637;-53
2021/07/24 00:07:20;;;;;;;;;;;;;;;24.18;49.12;100815.19;2208572;39;115909;-53
2021/07/24 00:08:52;;;;;;;;;;;;;;;24.20;49.36;100789.47;2209328;39;116358;-54
2021/07/24 00:10:24;;;;;;;;;;;;;;;24.25;49.26;100780.81;2210802;39;115852;-53
2021/07/24 00:11:56;;;;;;;;;;;;;;;24.18;48.91;100774.84;2203771;39;115545;-53
2021/07/24 00:13:28;;;;;;;;;;;;;;;24.18;49.21;100753.09;2208693;39;115905;-53
2021/07/24 00:15:00;;;;;;;;;;;;;;;24.16;49.17;100729.19;2211053;39;115463;-53
2021/07/24 00:16:31;;;;;;;;;;;;;;;24.16;49.36;100709.44;2207943;39;113899;-54
2021/07/24 00:18:03;;;;;;;;;;;;;;;24.18;49.57;100688.16;2210155;39;113957;-54
2021/07/24 00:19:35;;;;;;;;;;;;;;;24.17;49.85;100675.19;2209580;39;113967;-53
2021/07/24 00:21:06;;;;;;;;;;;;;;;24.22;49.97;100672.19;2209810;39;114022;-54
2021/07/24 00:22:38;;;;;;;;;;;;;;;24.24;50.21;100683.16;2209009;39;114241;-53
2021/07/24 00:24:10;;;;;;;;;;;;;;;24.24;50.25;100689.63;2210470;39;114119;-53
2021/07/24 00:25:41;;;;;;;;;;;;;;;24.24;50.09;100706.56;2210515;39;113665;-53
2021/07/24 00:27:13;;;;;;;;;;;;;;;24.26;50.10;100731.63;2207620;39;113937;-54
2021/07/24 00:28:45;;;;;;;;;;;;;;;24.23;50.09;100740.78;2208683;39;113976;-53
2021/07/24 00:30:17;;;;;;;;;;;;;;;24.21;49.89;100734.66;2210550;39;114151;-53
2021/07/24 00:31:52;;;;;;;;;;;;;;;24.28;49.95;100713.19;2210711;39;113643;-54
2021/07/24 00:33:24;;;;;;;;;;;;;;;24.24;49.84;100714.22;2210669;39;113654;-53
2021/07/24 00:34:56;;;;;;;;;;;;;;;24.26;50.09;100711.84;2211291;39;113958;-54
2021/07/24 00:36:28;;;;;;;;;;;;;;;24.25;50.34;100708.22;2213158;39;113979;-53
2021/07/24 00:38:03;;;;;;;;;;;;;;;24.25;49.90;100671.53;2211777;39;115030;-53
2021/07/24 00:39:35;;;;;;;;;;;;;;;24.27;50.16;100655.06;2209663;39;113939;-53
2021/07/24 00:41:14;;;;;;;;;;;;;;;24.23;50.31;100702.09;2211513;39;114952;-53
2021/07/24 00:42:48;;;;;;;;;;;;;;;24.25;49.95;100713.88;2209514;39;114880;-53
2021/07/24 00:44:22;;;;;;;;;;;;;;;24.23;50.10;100740.78;2210641;39;114771;-53
2021/07/24 00:45:55;;;;;;;;;;;;;;;24.22;49.86;100748.41;2209047;39;114814;-54
2021/07/24 00:47:28;;;;;;;;;;;;;;;24.16;50.17;100765.91;2202795;39;115536;-54
2021/07/24 00:49:01;;;;;;;;;;;;;;;24.20;49.75;100783.81;2206021;39;115061;-53
2021/07/24 00:50:32;;;;;;;;;;;;;;;24.21;50.00;100789.09;2210204;39;114015;-53
2021/07/24 00:52:04;;;;;;;;;;;;;;;24.22;49.99;100801.22;2210495;39;115079;-54
2021/07/24 00:53:36;;;;;;;;;;;;;;;24.20;49.90;100787.47;2210528;39;115147;-53
2021/07/24 00:55:08;;;;;;;;;;;;;;;24.21;49.72;100771.38;2203394;39;114492;-53
2021/07/24 00:56:40;;;;;;;;;;;;;;;24.23;49.74;100761.38;2206652;39;115220;-53
2021/07/24 00:58:21;;;;;;;;;;;;;;;24.23;49.96;100752.06;2208230;39;114965;-54
2021/07/24 00:59:52;;;;;;;;;;;;;;;24.21;49.90;100760.06;2213929;39;115042;-53
2021/07/24 01:01:25;;;;;;;;;;;;;;;24.27;49.92;100767.16;2209883;39;115768;-53
2021/07/24 01:02:57;;;;;;;;;;;;;;;24.25;49.81;100755.41;2210388;39;115703;-53
2021/07/24 01:04:29;;;;;;;;;;;;;;;24.21;49.97;100758.03;2210947;39;115937;-53
2021/07/24 01:06:01;;;;;;;;;;;;;;;24.23;50.16;100752.06;2209481;39;115542;-55
2021/07/24 01:07:34;;;;;;;;;;;;;;;24.23;50.37;100763.38;2207396;39;115591;-54
2021/07/24 01:09:06;;;;;;;;;;;;;;;24.24;50.12;100751.75;2210504;39;115603;-53
2021/07/24 01:10:37;;;;;;;;;;;;;;;24.25;50.29;100746.94;2204757;39;116210;-54
2021/07/24 01:12:09;;;;;;;;;;;;;;;24.25;50.19;100724.34;2210385;39;115478;-53
2021/07/24 01:13:41;;;;;;;;;;;;;;;24.23;50.18;100730.31;2210317;39;114502;-53
2021/07/24 01:15:13;;;;;;;;;;;;;;;24.28;50.50;100729.31;2209790;39;115592;-54
2021/07/24 01:16:45;;;;;;;;;;;;;;;24.25;50.31;100735.63;2207829;39;114558;-54
2021/07/24 01:18:17;;;;;;;;;;;;;;;24.27;50.46;100750.22;2210164;39;115818;-53
2021/07/24 01:19:49;;;;;;;;;;;;;;;24.31;50.56;100759.66;2205471;39;114814;-54
2021/07/24 01:21:23;;;;;;;;;;;;;;;24.26;50.08;100746.56;2207890;39;113849;-54
2021/07/24 01:22:56;;;;;;;;;;;;;;;24.26;50.01;100731.63;2203029;39;113703;-54
2021/07/24 01:24:27;;;;;;;;;;;;;;;24.20;50.05;100749.94;2205884;39;113894;-54
2021/07/24 01:25:59;;;;;;;;;;;;;;;24.16;50.10;100761.09;2210063;39;114287;-54
2021/07/24 01:27:40;;;;;;;;;;;;;;;24.17;49.82;100762.72;2207898;39;113938;-53
2021/07/24 01:29:15;;;;;;;;;;;;;;;24.16;50.01;100768.72;2203858;39;113879;-53
2021/07/24 01:30:47;;;;;;;;;;;;;;;24.14;49.84;100766.19;2207533;39;113771;-53
2021/07/24 01:32:18;;;;;;;;;;;;;;;24.11;49.91;100772.53;2210018;39;113874;-53
2021/07/24 01:33:50;;;;;;;;;;;;;;;24.09;49.59;100766.38;2210855;39;113761;-53
2021/07/24 01:35:21;;;;;;;;;;;;;;;24.08;49.50;100770.34;2210948;39;113946;-54
2021/07/24 01:36:53;;;;;;;;;;;;;;;24.06;49.53;100778.34;2211039;39;113802;-54
2021/07/24 01:38:25;;;;;;;;;;;;;;;24.06;49.59;100784.00;2211061;39;113816;-54
2021/07/24 01:39:56;;;;;;;;;;;;;;;24.06;49.85;100784.00;2210629;39;114397;-53
2021/07/24 01:41:28;;;;;;;;;;;;;;;24.06;49.73;100792.47;2205065;39;113839;-54
2021/07/24 01:43:00;;;;;;;;;;;;;;;24.05;49.61;100790.78;2214151;39;113660;-53
2021/07/24 01:44:31;;;;;;;;;;;;;;;24.02;49.40;100777.38;2209147;39;114172;-53
2021/07/24 01:46:04;;;;;;;;;;;;;;;24.00;49.57;100781.69;2209419;39;114812;-53
2021/07/24 01:47:36;;;;;;;;;;;;;;;23.99;49.77;100780.84;2208601;39;114792;-53
2021/07/24 01:49:13;;;;;;;;;;;;;;;23.99;49.64;100788.47;2207714;39;114882;-54
2021/07/24 01:54:22;;;;;;;;;;;;;;;24.01;49.79;100778.53;2208091;39;114826;-54
2021/07/24 01:55:56;;;;;;;;;;;;;;;24.07;49.91;100782.84;2211132;39;115057;-53
2021/07/24 01:57:30;;;;;;;;;;;;;;;24.13;49.92;100784.28;2210344;39;115317;-53
2021/07/24 01:59:01;;;;;;;;;;;;;;;24.09;50.00;100765.53;2209788;39;115287;-53
2021/07/24 02:00:33;;;;;;;;;;;;;;;24.08;50.20;100772.34;2210960;39;114781;-53
2021/07/24 02:02:07;;;;;;;;;;;;;;;24.08;49.94;100772.34;2209967;39;115117;-53
2021/07/24 02:03:43;;;;;;;;;;;;;;;24.08;49.65;100766.69;2209495;39;114873;-54
2021/07/24 02:05:25;;;;;;;;;;;;;;;24.08;50.04;100764.72;2218246;39;115646;-53
2021/07/24 02:06:57;;;;;;;;;;;;;;;24.10;50.06;100761.56;2207173;39;115002;-53
2021/07/24 02:08:32;;;;;;;;;;;;;;;24.09;49.85;100762.72;2211414;39;115643;-53
2021/07/24 02:10:04;;;;;;;;;;;;;;;24.09;50.09;100755.09;2211265;39;115830;-53
2021/07/24 02:11:37;;;;;;;;;;;;;;;24.11;50.11;100757.56;2210599;39;114702;-54
2021/07/24 02:13:09;;;;;;;;;;;;;;;24.10;50.28;100756.75;2211564;39;115677;-53
2021/07/24 02:14:40;;;;;;;;;;;;;;;24.11;49.70;100751.94;2210013;39;114546;-53
2021/07/24 02:16:12;;;;;;;;;;;;;;;24.14;50.02;100749.25;2210672;39;115992;-54
2021/07/24 02:17:44;;;;;;;;;;;;;;;24.08;49.90;100744.94;2211083;39;115473;-53
2021/07/24 02:19:16;;;;;;;;;;;;;;;24.10;50.26;100747.44;2206907;39;115748;-54
2021/07/24 02:20:48;;;;;;;;;;;;;;;24.10;49.89;100742.63;2210078;39;115729;-54
2021/07/24 02:22:19;;;;;;;;;;;;;;;24.09;50.15;100738.16;2210449;39;114652;-53
2021/07/24 02:23:51;;;;;;;;;;;;;;;24.09;49.83;100734.50;2205450;39;115024;-54
2021/07/24 02:25:23;;;;;;;;;;;;;;;24.10;50.22;100719.22;2210820;39;115627;-53
2021/07/24 02:26:54;;;;;;;;;;;;;;;24.10;50.01;100716.38;2212992;39;117178;-53
2021/07/24 02:28:26;;;;;;;;;;;;;;;24.09;50.04;100726.03;2212358;39;114014;-53
2021/07/24 02:29:58;;;;;;;;;;;;;;;24.08;49.95;100730.00;2211814;39;114031;-53
2021/07/24 02:31:29;;;;;;;;;;;;;;;24.09;50.20;100734.50;2214109;39;113922;-53
2021/07/24 02:33:01;;;;;;;;;;;;;;;24.08;49.79;100736.47;2212575;39;113671;-54
2021/07/24 02:34:33;;;;;;;;;;;;;;;24.09;50.15;100731.66;2210250;39;113831;-53
2021/07/24 02:36:04;;;;;;;;;;;;;;;24.06;50.09;100721.91;2210601;39;114022;-53
2021/07/24 02:37:36;;;;;;;;;;;;;;;24.09;49.93;100724.03;2216753;39;113902;-53
2021/07/24 02:39:08;;;;;;;;;;;;;;;24.09;50.38;100711.91;2202384;39;114013;-53
2021/07/24 02:40:40;;;;;;;;;;;;;;;24.11;49.84;100713.25;2203007;39;113912;-53
2021/07/24 02:42:12;;;;;;;;;;;;;;;24.10;50.14;100711.56;2209738;39;113824;-54
2021/07/24 02:43:43;;;;;;;;;;;;;;;24.07;49.89;100709.44;2210291;39;113834;-54
2021/07/24 02:45:15;;;;;;;;;;;;;;;24.08;50.06;100708.25;2211187;39;113858;-53
2021/07/24 02:46:47;;;;;;;;;;;;;;;24.09;50.14;100707.09;2205983;39;113639;-53
2021/07/24 02:48:18;;;;;;;;;;;;;;;24.10;50.35;100705.09;2207115;39;113588;-54
2021/07/24 02:49:50;;;;;;;;;;;;;;;24.09;50.10;100701.44;2198227;39;114968;-54
2021/07/24 02:51:22;;;;;;;;;;;;;;;24.08;50.08;100694.13;2207922;39;114868;-53
2021/07/24 02:52:53;;;;;;;;;;;;;;;24.07;49.98;100686.88;2210187;39;114037;-53
2021/07/24 02:54:25;;;;;;;;;;;;;;;24.08;50.28;100690.47;2212666;39;114834;-53
2021/07/24 02:55:57;;;;;;;;;;;;;;;24.11;50.07;100689.81;2211401;39;115057;-54
2021/07/24 02:57:28;;;;;;;;;;;;;;;24.08;50.10;100684.84;2207716;39;114922;-54
2021/07/24 02:59:00;;;;;;;;;;;;;;;24.09;50.17;100678.03;2208161;39;114810;-54
2021/07/24 03:00:32;;;;;;;;;;;;;;;24.06;49.75;100681.53;2211013;39;115237;-53
2021/07/24 03:02:04;;;;;;;;;;;;;;;24.07;50.13;100678.41;2209152;39;115783;-53
2021/07/24 03:03:36;;;;;;;;;;;;;;;24.09;49.90;100676.03;2210775;39;113950;-54
2021/07/24 03:05:07;;;;;;;;;;;;;;;24.08;50.13;100671.56;2210154;39;114894;-53
2021/07/24 03:06:39;;;;;;;;;;;;;;;24.09;50.62;100678.88;2206530;39;114134;-53
2021/07/24 03:08:11;;;;;;;;;;;;;;;24.09;50.30;100680.84;2209290;39;115309;-53
2021/07/24 03:09:42;;;;;;;;;;;;;;;24.08;50.38;100677.19;2208416;39;114756;-53
2021/07/24 03:11:14;;;;;;;;;;;;;;;24.10;50.26;100663.59;2207671;39;116086;-53
2021/07/24 03:12:46;;;;;;;;;;;;;;;24.09;50.08;100658.28;2208514;39;115614;-53
2021/07/24 03:14:17;;;;;;;;;;;;;;;24.11;50.15;100651.13;2210075;39;114563;-55
2021/07/24 03:15:49;;;;;;;;;;;;;;;24.11;50.43;100645.50;2209737;39;116047;-53
2021/07/24 03:17:22;;;;;;;;;;;;;;;24.12;50.20;100640.69;2210415;39;115600;-53
2021/07/24 03:18:54;;;;;;;;;;;;;;;24.14;50.42;100632.69;2210265;39;117283;-53
2021/07/24 03:20:25;;;;;;;;;;;;;;;24.12;50.19;100610.44;2210857;39;115531;-53
2021/07/24 03:21:57;;;;;;;;;;;;;;;24.14;50.24;100610.09;2210015;39;115572;-53
2021/07/24 03:23:29;;;;;;;;;;;;;;;24.14;50.23;100616.56;2209901;39;114604;-54
2021/07/24 03:25:00;;;;;;;;;;;;;;;24.13;50.17;100606.44;2210627;39;115852;-53
2021/07/24 03:26:32;;;;;;;;;;;;;;;24.14;50.33;100605.28;2210131;39;114556;-53
2021/07/24 03:28:04;;;;;;;;;;;;;;;24.15;50.58;100594.81;2208203;39;114435;-53
2021/07/24 03:29:36;;;;;;;;;;;;;;;24.15;50.10;100598.47;2212655;39;115702;-54
2021/07/24 03:31:07;;;;;;;;;;;;;;;24.15;50.40;100609.75;2211662;39;115502;-54
2021/07/24 03:32:39;;;;;;;;;;;;;;;24.16;50.37;100614.28;2210896;39;115446;-53
2021/07/24 03:34:13;;;;;;;;;;;;;;;24.17;50.13;100613.09;2210703;39;113846;-53
2021/07/24 03:35:45;;;;;;;;;;;;;;;24.16;50.21;100611.47;2201550;39;113958;-53
2021/07/24 03:37:20;;;;;;;;;;;;;;;24.16;50.37;100617.09;2204097;39;113817;-53
2021/07/24 03:38:52;;;;;;;;;;;;;;;24.16;50.39;100622.75;2209855;39;113921;-53
2021/07/24 03:40:24;;;;;;;;;;;;;;;24.19;50.28;100626.88;2207905;39;114268;-53
2021/07/24 03:41:55;;;;;;;;;;;;;;;24.18;50.17;100628.03;2210285;39;114199;-53
2021/07/24 03:43:27;;;;;;;;;;;;;;;24.18;50.39;100633.69;2212211;39;113734;-53
2021/07/24 03:44:58;;;;;;;;;;;;;;;24.20;50.20;100640.66;2211831;39;114081;-53
2021/07/24 03:46:30;;;;;;;;;;;;;;;24.19;50.14;100630.53;2210013;39;114232;-54
2021/07/24 03:48:02;;;;;;;;;;;;;;;24.20;50.20;100626.53;2210340;39;113819;-53
2021/07/24 03:49:34;;;;;;;;;;;;;;;24.20;50.28;100632.19;2215384;39;113805;-53
2021/07/24 03:51:08;;;;;;;;;;;;;;;24.22;50.27;100629.00;2209544;39;113704;-54
2021/07/24 03:52:40;;;;;;;;;;;;;;;24.21;50.33;100627.38;2209842;39;113826;-53
2021/07/24 03:54:11;;;;;;;;;;;;;;;24.21;50.37;100622.53;2212750;39;113839;-53
2021/07/24 03:55:44;;;;;;;;;;;;;;;24.20;50.42;100615.25;2209465;39;115170;-53
2021/07/24 03:57:16;;;;;;;;;;;;;;;24.21;50.20;100618.91;2206758;39;114830;-53
2021/07/24 03:58:50;;;;;;;;;;;;;;;24.22;50.54;100624.19;2214795;39;114916;-53
2021/07/24 04:00:23;;;;;;;;;;;;;;;24.22;50.13;100617.72;2203578;39;115386;-53
2021/07/24 04:01:57;;;;;;;;;;;;;;;24.22;50.32;100621.38;2207519;39;115070;-53
2021/07/24 04:03:29;;;;;;;;;;;;;;;24.23;50.26;100613.72;2209688;39;114588;-53
2021/07/24 04:05:01;;;;;;;;;;;;;;;24.24;50.46;100626.69;2210077;39;114964;-53
2021/07/24 04:06:33;;;;;;;;;;;;;;;24.23;50.09;100630.66;2211373;39;115049;-53
2021/07/24 04:08:05;;;;;;;;;;;;;;;24.22;50.49;100641.13;2211673;39;114888;-53
2021/07/24 04:09:37;;;;;;;;;;;;;;;24.22;50.30;100626.19;2210975;39;115898;-53
2021/07/24 04:11:08;;;;;;;;;;;;;;;24.23;50.39;100625.84;2205637;39;115935;-53
2021/07/24 04:12:41;;;;;;;;;;;;;;;24.24;50.59;100616.22;2213230;39;115751;-54
2021/07/24 04:14:13;;;;;;;;;;;;;;;24.25;50.69;100600.94;2207160;39;113996;-53
2021/07/24 04:15:45;;;;;;;;;;;;;;;24.25;51.00;100609.41;2213649;39;114882;-53
2021/07/24 04:17:17;;;;;;;;;;;;;;;24.28;50.95;100611.53;2210812;39;115502;-53
2021/07/24 04:18:49;;;;;;;;;;;;;;;24.27;50.78;100609.03;2211287;39;116196;-53
2021/07/24 04:20:21;;;;;;;;;;;;;;;24.25;50.68;100606.59;2211199;39;115608;-54
2021/07/24 04:21:54;;;;;;;;;;;;;;;24.26;51.10;100618.69;2209752;39;114823;-54
2021/07/24 04:23:27;;;;;;;;;;;;;;;24.31;51.06;100624.13;2208276;39;115453;-54
2021/07/24 04:24:58;;;;;;;;;;;;;;;24.27;50.83;100626.81;2207634;39;114817;-54
2021/07/24 04:26:30;;;;;;;;;;;;;;;24.27;50.99;100643.75;2210729;39;115520;-53
2021/07/24 04:28:02;;;;;;;;;;;;;;;24.28;50.83;100644.59;2210631;39;115522;-53
2021/07/24 04:29:34;;;;;;;;;;;;;;;24.27;50.93;100654.22;2210602;39;115181;-53
2021/07/24 04:31:11;;;;;;;;;;;;;;;24.29;50.88;100660.38;2207379;39;114866;-54
2021/07/24 04:32:42;;;;;;;;;;;;;;;24.30;50.85;100660.00;2212915;39;115626;-53
2021/07/24 04:34:14;;;;;;;;;;;;;;;24.30;51.09;100670.50;2213377;39;115555;-53
2021/07/24 04:35:47;;;;;;;;;;;;;;;24.31;51.27;100681.44;2209923;39;114707;-53
2021/07/24 04:37:18;;;;;;;;;;;;;;;24.32;50.86;100685.91;2212395;39;114730;-54
2021/07/24 04:38:50;;;;;;;;;;;;;;;24.31;50.80;100678.63;2208320;39;113932;-53
2021/07/24 04:40:22;;;;;;;;;;;;;;;24.31;51.13;100672.97;2210105;39;113744;-53
2021/07/24 04:41:54;;;;;;;;;;;;;;;24.32;51.02;100673.78;2208201;39;113936;-53
2021/07/24 04:43:26;;;;;;;;;;;;;;;24.32;51.33;100668.97;2210652;39;113673;-53
2021/07/24 04:44:57;;;;;;;;;;;;;;;24.34;51.38;100679.94;2210772;39;113823;-53
2021/07/24 04:46:29;;;;;;;;;;;;;;;24.32;50.83;100674.63;2210332;39;113821;-53
2021/07/24 04:48:01;;;;;;;;;;;;;;;24.33;51.06;100666.97;2210913;39;113769;-54
2021/07/24 04:49:33;;;;;;;;;;;;;;;24.33;51.02;100676.28;2210929;39;113761;-54
2021/07/24 04:51:05;;;;;;;;;;;;;;;24.33;51.02;100662.16;2211396;39;113628;-54
2021/07/24 04:52:37;;;;;;;;;;;;;;;24.33;51.19;100664.16;2209421;39;113690;-53
2021/07/24 04:54:08;;;;;;;;;;;;;;;24.35;51.41;100668.28;2209717;39;113902;-53
2021/07/24 04:55:41;;;;;;;;;;;;;;;24.37;51.15;100662.31;2208135;39;114114;-53
2021/07/24 04:57:13;;;;;;;;;;;;;;;24.36;51.17;100669.94;2200998;39;114003;-53
2021/07/24 04:58:45;;;;;;;;;;;;;;;24.38;51.32;100660.31;2203332;39;113880;-53
2021/07/24 05:00:17;;;;;;;;;;;;;;;24.36;51.20;100661.47;2213430;39;113569;-53
2021/07/24 05:01:49;;;;;;;;;;;;;;;24.38;51.22;100666.78;2209611;39;115248;-54
2021/07/24 05:03:21;;;;;;;;;;;;;;;24.37;50.91;100665.13;2210760;39;115059;-53
2021/07/24 05:04:54;;;;;;;;;;;;;;;24.39;51.08;100661.97;2210642;39;114882;-53
2021/07/24 05:06:26;;;;;;;;;;;;;;;24.40;51.10;100652.31;2210575;39;114101;-53
2021/07/24 05:07:58;;;;;;;;;;;;;;;24.40;50.85;100641.00;2210062;39;114845;-53
2021/07/24 05:09:30;;;;;;;;;;;;;;;24.38;51.21;100632.06;2210607;39;114899;-53
2021/07/24 05:11:01;;;;;;;;;;;;;;;24.40;51.06;100629.72;2211291;39;115435;-54
2021/07/24 05:12:33;;;;;;;;;;;;;;;24.40;51.01;100632.53;2213614;39;114756;-54
2021/07/24 05:14:05;;;;;;;;;;;;;;;24.40;51.03;100627.72;2210811;39;115501;-53
2021/07/24 05:15:38;;;;;;;;;;;;;;;24.38;50.93;100627.25;2211020;39;114792;-53
2021/07/24 05:17:11;;;;;;;;;;;;;;;24.40;51.29;100630.56;2209351;39;114802;-53
2021/07/24 05:18:43;;;;;;;;;;;;;;;24.39;51.10;100617.63;2210636;39;114995;-54
2021/07/24 05:20:15;;;;;;;;;;;;;;;24.39;50.95;100625.25;2210295;39;115060;-53
2021/07/24 05:21:46;;;;;;;;;;;;;;;24.40;51.07;100630.56;2206561;39;114035;-53
2021/07/24 05:23:18;;;;;;;;;;;;;;;24.41;51.41;100629.38;2210315;39;115648;-53
2021/07/24 05:24:50;;;;;;;;;;;;;;;24.40;51.20;100641.84;2203918;39;114567;-53
2021/07/24 05:26:21;;;;;;;;;;;;;;;24.40;50.86;100626.88;2208039;39;116006;-53
2021/07/24 05:27:53;;;;;;;;;;;;;;;24.41;51.30;100629.38;2210164;39;116410;-54
2021/07/24 05:29:25;;;;;;;;;;;;;;;24.40;50.77;100627.72;2210589;39;115618;-53
2021/07/24 05:30:56;;;;;;;;;;;;;;;24.40;51.14;100626.88;2210185;39;115597;-53
2021/07/24 05:32:28;;;;;;;;;;;;;;;24.40;51.27;100624.06;2206379;39;115900;-54
2021/07/24 05:34:00;;;;;;;;;;;;;;;24.42;51.44;100621.75;2214701;39;116044;-53
2021/07/24 05:35:31;;;;;;;;;;;;;;;24.42;51.22;100627.38;2211667;39;114735;-53
2021/07/24 05:37:03;;;;;;;;;;;;;;;24.42;50.98;100616.94;2209040;39;115547;-53
2021/07/24 05:38:35;;;;;;;;;;;;;;;24.42;50.92;100633.03;2207847;39;115301;-53
2021/07/24 05:40:07;;;;;;;;;;;;;;;24.42;51.33;100618.91;2205675;39;114892;-54
2021/07/24 05:41:39;;;;;;;;;;;;;;;24.45;51.02;100615.41;2205910;39;115661;-53
2021/07/24 05:43:11;;;;;;;;;;;;;;;24.42;51.28;100616.09;2211736;39;114702;-53
2021/07/24 05:44:42;;;;;;;;;;;;;;;24.41;51.13;100620.91;2210156;39;113631;-53
2021/07/24 05:46:14;;;;;;;;;;;;;;;24.40;51.03;100619.25;2210630;39;113626;-53
2021/07/24 05:47:46;;;;;;;;;;;;;;;24.42;51.53;100624.56;2202371;39;113977;-53
2021/07/24 05:49:18;;;;;;;;;;;;;;;24.41;51.45;100622.91;2208542;39;113818;-53
2021/07/24 05:50:49;;;;;;;;;;;;;;;24.42;51.53;100630.22;2209593;39;113864;-53
2021/07/24 05:52:21;;;;;;;;;;;;;;;24.44;51.50;100625.06;2205269;39;114237;-53
2021/07/24 05:53:53;;;;;;;;;;;;;;;24.42;51.71;100625.41;2209818;39;113965;-53
2021/07/24 05:55:24;;;;;;;;;;;;;;;24.43;51.45;100629.06;2210212;39;113740;-54
2021/07/24 05:56:56;;;;;;;;;;;;;;;24.41;51.70;100637.03;2210090;39;113697;-53
2021/07/24 05:58:28;;;;;;;;;;;;;;;24.42;51.48;100628.22;2210169;39;114101;-53
2021/07/24 06:00:00;;;;;;;;;;;;;;;24.42;51.70;100616.09;2210271;39;113726;-53
2021/07/24 06:01:31;;;;;;;;;;;;;;;24.40;51.58;100602.31;2212461;39;113908;-54
2021/07/24 06:03:03;;;;;;;;;;;;;;;24.41;51.93;100601.16;2210386;39;113803;-53
2021/07/24 06:04:35;;;;;;;;;;;;;;;24.42;51.99;100604.81;2207042;39;114253;-54
2021/07/24 06:06:07;;;;;;;;;;;;;;;24.41;51.91;100615.25;2206702;39;114561;-53
2021/07/24 06:07:39;;;;;;;;;;;;;;;24.43;51.85;100612.09;2207507;39;113934;-54
2021/07/24 06:09:10;;;;;;;;;;;;;;;24.43;52.27;100612.09;2207539;39;115239;-54
2021/07/24 06:10:42;;;;;;;;;;;;;;;24.43;51.88;100606.47;2210616;39;114806;-54
2021/07/24 06:12:14;;;;;;;;;;;;;;;24.44;52.18;100602.47;2214349;39;114743;-53
2021/07/24 06:13:45;;;;;;;;;;;;;;;24.43;52.15;100606.47;2212336;39;114902;-53
2021/07/24 06:15:17;;;;;;;;;;;;;;;24.42;52.48;100625.41;2209467;39;113887;-53
2021/07/24 06:16:49;;;;;;;;;;;;;;;24.42;52.13;100633.03;2208230;39;114097;-53
2021/07/24 06:18:21;;;;;;;;;;;;;;;24.40;51.91;100633.38;2211045;39;115521;-54
2021/07/24 06:19:52;;;;;;;;;;;;;;;24.39;52.47;100623.28;2210899;39;115798;-53
2021/07/24 06:21:24;;;;;;;;;;;;;;;24.41;52.59;100589.00;2211715;39;114962;-53
2021/07/24 06:22:55;;;;;;;;;;;;;;;24.41;52.31;100581.38;2204815;39;114846;-53
2021/07/24 06:24:27;;;;;;;;;;;;;;;24.40;52.74;100576.06;2209008;39;114805;-54
2021/07/24 06:26:01;;;;;;;;;;;;;;;24.40;52.43;100598.66;2212548;39;114818;-53
2021/07/24 06:27:34;;;;;;;;;;;;;;;24.42;52.50;100616.94;2214789;39;115955;-53
2021/07/24 06:29:06;;;;;;;;;;;;;;;24.43;52.75;100640.34;2210409;39;114197;-53
2021/07/24 06:30:39;;;;;;;;;;;;;;;24.41;52.85;100629.38;2207645;39;115344;-53
2021/07/24 06:32:10;;;;;;;;;;;;;;;24.41;52.93;100611.59;2210602;39;117437;-53
2021/07/24 06:33:42;;;;;;;;;;;;;;;24.43;53.26;100603.63;2210352;39;115595;-53
2021/07/24 06:35:14;;;;;;;;;;;;;;;24.43;53.10;100626.22;2210023;39;117146;-53
2021/07/24 06:36:45;;;;;;;;;;;;;;;24.43;53.08;100634.69;2207064;39;115584;-54
2021/07/24 06:38:17;;;;;;;;;;;;;;;24.42;53.17;100639.53;2210007;39;115794;-53
2021/07/24 06:39:48;;;;;;;;;;;;;;;24.42;53.17;100649.97;2211573;39;115131;-54
2021/07/24 06:41:20;;;;;;;;;;;;;;;24.43;53.59;100658.13;2210286;39;115712;-54
2021/07/24 06:42:52;;;;;;;;;;;;;;;24.43;53.52;100655.31;2211083;39;115643;-54
2021/07/24 06:44:24;;;;;;;;;;;;;;;24.43;53.34;100666.59;2210489;39;115597;-54
2021/07/24 06:45:56;;;;;;;;;;;;;;;24.42;53.33;100666.94;2210915;39;114412;-54
2021/07/24 06:47:28;;;;;;;;;;;;;;;24.43;53.38;100672.25;2211237;39;115482;-54
2021/07/24 06:49:00;;;;;;;;;;;;;;;24.44;53.60;100658.97;2201369;39;115619;-53
2021/07/24 06:50:31;;;;;;;;;;;;;;;24.44;53.65;100658.97;2205885;39;114423;-54
2021/07/24 06:52:03;;;;;;;;;;;;;;;24.43;53.44;100658.13;2208932;39;113806;-54
2021/07/24 06:53:35;;;;;;;;;;;;;;;24.43;53.66;100662.94;2215962;39;113796;-53
2021/07/24 06:55:07;;;;;;;;;;;;;;;24.44;53.44;100662.59;2212557;39;113793;-54
2021/07/24 06:56:39;;;;;;;;;;;;;;;24.44;53.62;100658.97;2210850;39;114115;-54
2021/07/24 06:58:11;;;;;;;;;;;;;;;24.44;53.50;100662.59;2210709;39;113960;-54
2021/07/24 06:59:42;;;;;;;;;;;;;;;24.46;53.53;100668.72;2214041;39;113913;-54
2021/07/24 07:01:14;;;;;;;;;;;;;;;24.44;53.43;100665.41;2212498;39;113686;-53
2021/07/24 07:02:46;;;;;;;;;;;;;;;24.44;53.42;100661.78;2210702;39;113754;-54
2021/07/24 07:04:18;;;;;;;;;;;;;;;24.44;53.31;100656.94;2208529;39;113872;-54
2021/07/24 07:05:49;;;;;;;;;;;;;;;24.45;53.51;100646.47;2209821;39;113827;-54
2021/07/24 07:07:21;;;;;;;;;;;;;;;24.44;53.43;100656.13;2210962;39;113850;-54
2021/07/24 07:08:53;;;;;;;;;;;;;;;24.44;53.50;100656.94;2211655;39;113926;-54
2021/07/24 07:10:25;;;;;;;;;;;;;;;24.45;53.58;100646.47;2214062;39;113587;-54
2021/07/24 07:12:01;;;;;;;;;;;;;;;24.44;53.42;100650.47;2210303;39;114744;-54
2021/07/24 07:13:33;;;;;;;;;;;;;;;24.44;53.42;100640.00;2203534;39;115187;-54
2021/07/24 07:15:08;;;;;;;;;;;;;;;24.44;53.77;100639.19;2206592;39;115035;-54
2021/07/24 07:16:40;;;;;;;;;;;;;;;24.43;53.61;100641.19;2210609;39;115726;-54
2021/07/24 07:18:12;;;;;;;;;;;;;;;24.45;53.70;100638.81;2211014;39;114745;-54
2021/07/24 07:19:43;;;;;;;;;;;;;;;24.46;53.58;100631.19;2211495;39;114959;-54
2021/07/24 07:21:15;;;;;;;;;;;;;;;24.45;53.87;100636.00;2211491;39;115300;-54
2021/07/24 07:22:47;;;;;;;;;;;;;;;24.44;53.71;100614.56;2210288;39;114303;-54
2021/07/24 07:24:19;;;;;;;;;;;;;;;24.45;53.78;100616.22;2209550;39;114799;-54
2021/07/24 07:25:50;;;;;;;;;;;;;;;24.46;53.87;100617.06;2211038;39;115410;-54
2021/07/24 07:27:22;;;;;;;;;;;;;;;24.45;53.52;100619.06;2211397;39;115271;-54
2021/07/24 07:28:55;;;;;;;;;;;;;;;24.44;53.71;100605.28;2211617;39;114869;-54
2021/07/24 07:30:27;;;;;;;;;;;;;;;24.46;53.61;100614.22;2206692;39;114212;-54
2021/07/24 07:31:59;;;;;;;;;;;;;;;24.45;53.71;100604.09;2210687;39;114858;-54
2021/07/24 07:33:30;;;;;;;;;;;;;;;24.46;53.92;100594.47;2210384;39;115401;-55
2021/07/24 07:35:03;;;;;;;;;;;;;;;24.45;54.00;100587.16;2210509;39;115781;-54
2021/07/24 07:36:34;;;;;;;;;;;;;;;24.46;53.84;100589.66;2210872;39;115777;-54
2021/07/24 07:38:06;;;;;;;;;;;;;;;24.44;54.13;100585.53;2210355;39;115585;-54
2021/07/24 07:39:38;;;;;;;;;;;;;;;24.45;53.92;100589.97;2210535;39;115625;-54
2021/07/24 07:41:09;;;;;;;;;;;;;;;24.44;53.85;100588.34;2204145;39;115565;-54
2021/07/24 07:42:41;;;;;;;;;;;;;;;24.45;53.96;100579.50;2208601;39;116794;-54
2021/07/24 07:44:13;;;;;;;;;;;;;;;24.46;54.21;100569.03;2211533;39;115512;-54
2021/07/24 07:45:45;;;;;;;;;;;;;;;24.46;53.98;100566.22;2211319;39;116100;-54
2021/07/24 07:47:16;;;;;;;;;;;;;;;24.47;54.09;100557.41;2210999;39;114700;-54
2021/07/24 07:48:49;;;;;;;;;;;;;;;24.47;54.36;100550.94;2211301;39;115466;-54
2021/07/24 07:50:21;;;;;;;;;;;;;;;24.43;54.10;100555.63;2210827;39;115593;-54
2021/07/24 07:51:53;;;;;;;;;;;;;;;24.46;54.04;100549.28;2210272;39;115529;-54